sensor_id;sensor_type;location;lat;lon;timestamp;P1;durP1;ratioP1;P2;durP2;ratioP2
2001;SDS011;1003;48.002;7.788;2023-08-24T00:00:34;8.93;;;6.60;;
2001;SDS011;1003;48.002;7.788;2023-08-24T00:03:03;8.30;;;6.47;;
2001;SDS011;1003;48.002;7.788;2023-08-24T00:05:32;7.47;;;6.70;;
2001;SDS011;1003;48.002;7.788;2023-08-24T00:08:02;7.57;;;6.87;;
2001;SDS011;1003;48.002;7.788;2023-08-24T00:10:31;7.13;;;6.40;;
2001;SDS011;1003;48.002;7.788;2023-08-24T00:13:01;7.83;;;6.80;;
2001;SDS011;1003;48.002;7.788;2023-08-24T00:15:29;7.33;;;6.60;;
2001;SDS011;1003;48.002;7.788;2023-08-24T00:17:56;7.17;;;6.10;;
2001;SDS011;1003;48.002;7.788;2023-08-24T00:20:23;7.90;;;6.50;;
2001;SDS011;1003;48.002;7.788;2023-08-24T00:22:52;7.27;;;6.20;;
2001;SDS011;1003;48.002;7.788;2023-08-24T00:25:19;7.77;;;5.97;;
2001;SDS011;1003;48.002;7.788;2023-08-24T00:27:47;8.13;;;6.43;;
2001;SDS011;1003;48.002;7.788;2023-08-24T00:30:15;8.20;;;6.53;;
2001;SDS011;1003;48.002;7.788;2023-08-24T00:32:42;8.43;;;6.87;;
2001;SDS011;1003;48.002;7.788;2023-08-24T00:35:09;6.83;;;6.10;;
2001;SDS011;1003;48.002;7.788;2023-08-24T00:37:36;6.97;;;6.17;;
2001;SDS011;1003;48.002;7.788;2023-08-24T00:40:05;6.70;;;6.10;;
2001;SDS011;1003;48.002;7.788;2023-08-24T00:42:36;10.43;;;6.40;;
2001;SDS011;1003;48.002;7.788;2023-08-24T00:45:07;7.40;;;6.70;;
2001;SDS011;1003;48.002;7.788;2023-08-24T00:47:37;7.37;;;6.53;;
2001;SDS011;1003;48.002;7.788;2023-08-24T00:50:07;7.30;;;6.10;;
2001;SDS011;1003;48.002;7.788;2023-08-24T00:52:35;7.37;;;6.67;;
2001;SDS011;1003;48.002;7.788;2023-08-24T00:55:06;8.00;;;6.70;;
2001;SDS011;1003;48.002;7.788;2023-08-24T00:57:34;8.87;;;6.73;;
2001;SDS011;1003;48.002;7.788;2023-08-24T01:00:04;7.00;;;6.30;;
2001;SDS011;1003;48.002;7.788;2023-08-24T01:02:35;7.93;;;7.07;;
2001;SDS011;1003;48.002;7.788;2023-08-24T01:05:03;7.70;;;6.60;;
2001;SDS011;1003;48.002;7.788;2023-08-24T01:07:31;7.80;;;6.80;;
2001;SDS011;1003;48.002;7.788;2023-08-24T01:10:00;9.07;;;7.00;;
2001;SDS011;1003;48.002;7.788;2023-08-24T01:12:31;8.07;;;7.03;;
2001;SDS011;1003;48.002;7.788;2023-08-24T01:15:13;7.77;;;6.93;;
2001;SDS011;1003;48.002;7.788;2023-08-24T01:17:48;7.47;;;6.63;;
2001;SDS011;1003;48.002;7.788;2023-08-24T01:20:18;6.90;;;6.20;;
2001;SDS011;1003;48.002;7.788;2023-08-24T01:22:48;6.93;;;6.23;;
2001;SDS011;1003;48.002;7.788;2023-08-24T01:25:24;7.60;;;6.80;;
2001;SDS011;1003;48.002;7.788;2023-08-24T01:28:05;7.87;;;6.23;;
2001;SDS011;1003;48.002;7.788;2023-08-24T01:30:35;8.60;;;7.17;;
2001;SDS011;1003;48.002;7.788;2023-08-24T01:33:05;7.43;;;6.63;;
2001;SDS011;1003;48.002;7.788;2023-08-24T01:35:36;7.47;;;6.67;;
2001;SDS011;1003;48.002;7.788;2023-08-24T01:38:04;9.67;;;7.00;;
2001;SDS011;1003;48.002;7.788;2023-08-24T01:40:33;7.60;;;6.70;;
2001;SDS011;1003;48.002;7.788;2023-08-24T01:43:12;8.27;;;7.10;;
2001;SDS011;1003;48.002;7.788;2023-08-24T01:45:41;7.27;;;6.57;;
2001;SDS011;1003;48.002;7.788;2023-08-24T01:48:10;9.37;;;7.27;;
2001;SDS011;1003;48.002;7.788;2023-08-24T01:50:39;11.60;;;8.00;;
2001;SDS011;1003;48.002;7.788;2023-08-24T01:53:08;9.23;;;7.17;;
2001;SDS011;1003;48.002;7.788;2023-08-24T01:55:36;8.50;;;7.57;;
2001;SDS011;1003;48.002;7.788;2023-08-24T01:58:03;8.43;;;7.53;;
2001;SDS011;1003;48.002;7.788;2023-08-24T02:00:31;9.53;;;7.30;;
2001;SDS011;1003;48.002;7.788;2023-08-24T02:02:58;8.33;;;7.23;;
2001;SDS011;1003;48.002;7.788;2023-08-24T02:05:26;7.30;;;6.40;;
2001;SDS011;1003;48.002;7.788;2023-08-24T02:07:54;7.70;;;7.00;;
2001;SDS011;1003;48.002;7.788;2023-08-24T02:10:22;7.47;;;6.70;;
2001;SDS011;1003;48.002;7.788;2023-08-24T02:12:49;7.20;;;6.53;;
2001;SDS011;1003;48.002;7.788;2023-08-24T02:15:16;7.53;;;6.27;;
2001;SDS011;1003;48.002;7.788;2023-08-24T02:17:45;8.57;;;6.77;;
2001;SDS011;1003;48.002;7.788;2023-08-24T02:20:12;8.03;;;6.97;;
2001;SDS011;1003;48.002;7.788;2023-08-24T02:22:39;7.47;;;6.73;;
2001;SDS011;1003;48.002;7.788;2023-08-24T02:25:06;7.43;;;6.63;;
2001;SDS011;1003;48.002;7.788;2023-08-24T02:27:36;8.10;;;6.57;;
2001;SDS011;1003;48.002;7.788;2023-08-24T02:30:03;6.63;;;6.03;;
2001;SDS011;1003;48.002;7.788;2023-08-24T02:32:31;7.50;;;6.70;;
2001;SDS011;1003;48.002;7.788;2023-08-24T02:35:00;8.23;;;7.37;;
2001;SDS011;1003;48.002;7.788;2023-08-24T02:37:27;6.50;;;5.90;;
2001;SDS011;1003;48.002;7.788;2023-08-24T02:39:54;8.13;;;6.40;;
2001;SDS011;1003;48.002;7.788;2023-08-24T02:42:21;8.07;;;6.37;;
2001;SDS011;1003;48.002;7.788;2023-08-24T02:44:48;8.30;;;6.57;;
2001;SDS011;1003;48.002;7.788;2023-08-24T02:47:15;8.03;;;6.47;;
2001;SDS011;1003;48.002;7.788;2023-08-24T02:49:42;7.30;;;6.60;;
2001;SDS011;1003;48.002;7.788;2023-08-24T02:52:11;7.00;;;6.20;;
2001;SDS011;1003;48.002;7.788;2023-08-24T02:54:38;6.83;;;6.13;;
2001;SDS011;1003;48.002;7.788;2023-08-24T02:57:05;7.17;;;6.27;;
2001;SDS011;1003;48.002;7.788;2023-08-24T02:59:32;6.87;;;6.10;;
2001;SDS011;1003;48.002;7.788;2023-08-24T03:01:59;7.00;;;6.30;;
2001;SDS011;1003;48.002;7.788;2023-08-24T03:04:26;7.17;;;6.33;;
2001;SDS011;1003;48.002;7.788;2023-08-24T03:06:53;8.97;;;6.77;;
2001;SDS011;1003;48.002;7.788;2023-08-24T03:09:22;7.10;;;6.40;;
2001;SDS011;1003;48.002;7.788;2023-08-24T03:11:49;7.50;;;6.53;;
2001;SDS011;1003;48.002;7.788;2023-08-24T03:14:16;7.20;;;6.50;;
2001;SDS011;1003;48.002;7.788;2023-08-24T03:16:43;7.00;;;6.30;;
2001;SDS011;1003;48.002;7.788;2023-08-24T03:19:10;7.83;;;6.23;;
2001;SDS011;1003;48.002;7.788;2023-08-24T03:21:39;8.13;;;6.40;;
2001;SDS011;1003;48.002;7.788;2023-08-24T03:24:06;8.03;;;6.60;;
2001;SDS011;1003;48.002;7.788;2023-08-24T03:26:35;7.10;;;6.37;;
2001;SDS011;1003;48.002;7.788;2023-08-24T03:29:02;8.57;;;6.50;;
2001;SDS011;1003;48.002;7.788;2023-08-24T03:31:29;7.63;;;6.33;;
2001;SDS011;1003;48.002;7.788;2023-08-24T03:33:56;7.00;;;6.30;;
2001;SDS011;1003;48.002;7.788;2023-08-24T03:36:23;9.80;;;6.80;;
2001;SDS011;1003;48.002;7.788;2023-08-24T03:38:50;8.70;;;6.93;;
2001;SDS011;1003;48.002;7.788;2023-08-24T03:41:17;7.60;;;6.27;;
2001;SDS011;1003;48.002;7.788;2023-08-24T03:43:46;9.07;;;6.90;;
2001;SDS011;1003;48.002;7.788;2023-08-24T03:46:13;7.50;;;6.03;;
2001;SDS011;1003;48.002;7.788;2023-08-24T03:48:40;7.37;;;6.60;;
2001;SDS011;1003;48.002;7.788;2023-08-24T03:51:07;8.33;;;6.90;;
2001;SDS011;1003;48.002;7.788;2023-08-24T03:53:34;8.73;;;6.97;;
2001;SDS011;1003;48.002;7.788;2023-08-24T03:56:01;8.67;;;6.60;;
2001;SDS011;1003;48.002;7.788;2023-08-24T03:58:28;7.60;;;6.43;;
2001;SDS011;1003;48.002;7.788;2023-08-24T04:00:56;7.63;;;6.17;;
2001;SDS011;1003;48.002;7.788;2023-08-24T04:03:23;6.90;;;6.20;;
2001;SDS011;1003;48.002;7.788;2023-08-24T04:05:50;7.10;;;6.40;;
2001;SDS011;1003;48.002;7.788;2023-08-24T04:08:17;7.90;;;6.43;;
2001;SDS011;1003;48.002;7.788;2023-08-24T04:10:44;6.40;;;5.80;;
2001;SDS011;1003;48.002;7.788;2023-08-24T04:13:11;6.57;;;5.87;;
2001;SDS011;1003;48.002;7.788;2023-08-24T04:15:38;6.70;;;6.00;;
2001;SDS011;1003;48.002;7.788;2023-08-24T04:18:07;8.43;;;6.33;;
2001;SDS011;1003;48.002;7.788;2023-08-24T04:20:34;6.13;;;5.57;;
2001;SDS011;1003;48.002;7.788;2023-08-24T04:23:01;7.93;;;7.13;;
2001;SDS011;1003;48.002;7.788;2023-08-24T04:25:29;7.60;;;6.80;;
2001;SDS011;1003;48.002;7.788;2023-08-24T04:27:56;7.03;;;6.33;;
2001;SDS011;1003;48.002;7.788;2023-08-24T04:30:23;8.50;;;6.47;;
2001;SDS011;1003;48.002;7.788;2023-08-24T04:32:50;7.20;;;6.33;;
2001;SDS011;1003;48.002;7.788;2023-08-24T04:35:18;7.20;;;6.50;;
2001;SDS011;1003;48.002;7.788;2023-08-24T04:37:45;11.07;;;6.53;;
2001;SDS011;1003;48.002;7.788;2023-08-24T04:40:12;9.93;;;7.03;;
2001;SDS011;1003;48.002;7.788;2023-08-24T04:42:39;7.13;;;6.43;;
2001;SDS011;1003;48.002;7.788;2023-08-24T04:45:07;6.90;;;6.20;;
2001;SDS011;1003;48.002;7.788;2023-08-24T04:47:35;10.17;;;6.80;;
2001;SDS011;1003;48.002;7.788;2023-08-24T04:50:02;8.00;;;7.20;;
2001;SDS011;1003;48.002;7.788;2023-08-24T04:52:31;7.57;;;6.73;;
2001;SDS011;1003;48.002;7.788;2023-08-24T04:54:59;6.40;;;5.80;;
2001;SDS011;1003;48.002;7.788;2023-08-24T04:57:27;7.47;;;6.30;;
2001;SDS011;1003;48.002;7.788;2023-08-24T04:59:54;10.33;;;6.93;;
2001;SDS011;1003;48.002;7.788;2023-08-24T05:02:22;8.40;;;6.80;;
2001;SDS011;1003;48.002;7.788;2023-08-24T05:04:49;8.27;;;6.90;;
2001;SDS011;1003;48.002;7.788;2023-08-24T05:07:16;7.60;;;6.73;;
2001;SDS011;1003;48.002;7.788;2023-08-24T05:09:44;9.03;;;6.57;;
2001;SDS011;1003;48.002;7.788;2023-08-24T05:12:11;7.67;;;6.43;;
2001;SDS011;1003;48.002;7.788;2023-08-24T05:14:38;7.70;;;6.87;;
2001;SDS011;1003;48.002;7.788;2023-08-24T05:17:05;7.70;;;6.47;;
2001;SDS011;1003;48.002;7.788;2023-08-24T05:19:32;7.70;;;6.47;;
2001;SDS011;1003;48.002;7.788;2023-08-24T05:21:59;6.70;;;6.10;;
2001;SDS011;1003;48.002;7.788;2023-08-24T05:24:27;8.40;;;6.57;;
2001;SDS011;1003;48.002;7.788;2023-08-24T05:26:55;9.03;;;6.60;;
2001;SDS011;1003;48.002;7.788;2023-08-24T05:29:22;7.43;;;6.40;;
2001;SDS011;1003;48.002;7.788;2023-08-24T05:31:49;10.27;;;7.07;;
2001;SDS011;1003;48.002;7.788;2023-08-24T05:34:16;7.40;;;6.60;;
2001;SDS011;1003;48.002;7.788;2023-08-24T05:36:43;8.13;;;6.93;;
2001;SDS011;1003;48.002;7.788;2023-08-24T05:39:10;7.23;;;6.43;;
2001;SDS011;1003;48.002;7.788;2023-08-24T05:41:37;7.70;;;6.90;;
2001;SDS011;1003;48.002;7.788;2023-08-24T05:44:06;7.57;;;6.87;;
2001;SDS011;1003;48.002;7.788;2023-08-24T05:46:33;8.17;;;6.50;;
2001;SDS011;1003;48.002;7.788;2023-08-24T05:49:00;7.00;;;6.30;;
2001;SDS011;1003;48.002;7.788;2023-08-24T05:51:27;8.00;;;6.03;;
2001;SDS011;1003;48.002;7.788;2023-08-24T05:53:54;6.27;;;5.67;;
2001;SDS011;1003;48.002;7.788;2023-08-24T05:56:23;7.83;;;7.03;;
2001;SDS011;1003;48.002;7.788;2023-08-24T05:58:50;7.10;;;6.40;;
2001;SDS011;1003;48.002;7.788;2023-08-24T06:01:19;7.47;;;6.53;;
2001;SDS011;1003;48.002;7.788;2023-08-24T06:03:46;7.70;;;6.80;;
2001;SDS011;1003;48.002;7.788;2023-08-24T06:06:13;8.57;;;6.20;;
2001;SDS011;1003;48.002;7.788;2023-08-24T06:08:40;10.07;;;6.57;;
2001;SDS011;1003;48.002;7.788;2023-08-24T06:11:07;7.77;;;6.57;;
2001;SDS011;1003;48.002;7.788;2023-08-24T06:13:37;7.83;;;7.03;;
2001;SDS011;1003;48.002;7.788;2023-08-24T06:16:04;7.40;;;6.57;;
2001;SDS011;1003;48.002;7.788;2023-08-24T06:18:32;6.47;;;5.87;;
2001;SDS011;1003;48.002;7.788;2023-08-24T06:20:59;7.07;;;6.37;;
2001;SDS011;1003;48.002;7.788;2023-08-24T06:23:27;8.43;;;6.90;;
2001;SDS011;1003;48.002;7.788;2023-08-24T06:25:57;8.27;;;6.50;;
2001;SDS011;1003;48.002;7.788;2023-08-24T06:28:26;9.87;;;6.30;;
2001;SDS011;1003;48.002;7.788;2023-08-24T06:30:54;8.00;;;6.50;;
2001;SDS011;1003;48.002;7.788;2023-08-24T06:33:21;8.53;;;6.10;;
2001;SDS011;1003;48.002;7.788;2023-08-24T06:35:56;6.70;;;6.00;;
2001;SDS011;1003;48.002;7.788;2023-08-24T06:38:23;7.80;;;6.23;;
2001;SDS011;1003;48.002;7.788;2023-08-24T06:40:51;6.07;;;5.47;;
2001;SDS011;1003;48.002;7.788;2023-08-24T06:43:19;7.67;;;5.90;;
2001;SDS011;1003;48.002;7.788;2023-08-24T06:45:46;7.63;;;6.03;;
2001;SDS011;1003;48.002;7.788;2023-08-24T06:48:13;6.77;;;6.07;;
2001;SDS011;1003;48.002;7.788;2023-08-24T06:50:40;6.87;;;5.90;;
2001;SDS011;1003;48.002;7.788;2023-08-24T06:53:08;7.30;;;6.60;;
2001;SDS011;1003;48.002;7.788;2023-08-24T06:55:35;9.00;;;6.40;;
2001;SDS011;1003;48.002;7.788;2023-08-24T06:58:03;7.93;;;6.50;;
2001;SDS011;1003;48.002;7.788;2023-08-24T07:00:30;7.10;;;6.40;;
2001;SDS011;1003;48.002;7.788;2023-08-24T07:02:58;8.17;;;6.60;;
2001;SDS011;1003;48.002;7.788;2023-08-24T07:05:25;7.73;;;6.40;;
2001;SDS011;1003;48.002;7.788;2023-08-24T07:07:55;7.07;;;5.50;;
2001;SDS011;1003;48.002;7.788;2023-08-24T07:10:24;8.97;;;6.00;;
2001;SDS011;1003;48.002;7.788;2023-08-24T07:12:51;7.33;;;5.60;;
2001;SDS011;1003;48.002;7.788;2023-08-24T07:15:18;8.47;;;6.87;;
2001;SDS011;1003;48.002;7.788;2023-08-24T07:17:45;7.77;;;6.77;;
2001;SDS011;1003;48.002;7.788;2023-08-24T07:20:12;6.93;;;6.03;;
2001;SDS011;1003;48.002;7.788;2023-08-24T07:22:40;8.90;;;6.13;;
2001;SDS011;1003;48.002;7.788;2023-08-24T07:25:07;7.30;;;6.60;;
2001;SDS011;1003;48.002;7.788;2023-08-24T07:27:37;7.23;;;6.17;;
2001;SDS011;1003;48.002;7.788;2023-08-24T07:30:05;10.33;;;6.83;;
2001;SDS011;1003;48.002;7.788;2023-08-24T07:32:34;6.93;;;6.07;;
2001;SDS011;1003;48.002;7.788;2023-08-24T07:35:03;9.80;;;6.57;;
2001;SDS011;1003;48.002;7.788;2023-08-24T07:37:31;8.10;;;6.60;;
2001;SDS011;1003;48.002;7.788;2023-08-24T07:39:58;8.90;;;5.97;;
2001;SDS011;1003;48.002;7.788;2023-08-24T07:42:25;6.03;;;5.07;;
2001;SDS011;1003;48.002;7.788;2023-08-24T07:44:54;9.67;;;5.87;;
2001;SDS011;1003;48.002;7.788;2023-08-24T07:47:21;7.40;;;5.37;;
2001;SDS011;1003;48.002;7.788;2023-08-24T07:49:48;8.27;;;5.47;;
2001;SDS011;1003;48.002;7.788;2023-08-24T07:52:15;5.77;;;5.20;;
2001;SDS011;1003;48.002;7.788;2023-08-24T07:54:42;5.80;;;5.20;;
2001;SDS011;1003;48.002;7.788;2023-08-24T07:57:09;7.37;;;5.30;;
2001;SDS011;1003;48.002;7.788;2023-08-24T07:59:36;5.53;;;5.00;;
2001;SDS011;1003;48.002;7.788;2023-08-24T08:02:05;8.13;;;5.07;;
2001;SDS011;1003;48.002;7.788;2023-08-24T08:04:32;5.80;;;5.00;;
2001;SDS011;1003;48.002;7.788;2023-08-24T08:06:59;5.70;;;5.10;;
2001;SDS011;1003;48.002;7.788;2023-08-24T08:09:26;5.50;;;5.00;;
2001;SDS011;1003;48.002;7.788;2023-08-24T08:11:53;5.90;;;5.27;;
2001;SDS011;1003;48.002;7.788;2023-08-24T08:14:20;7.13;;;5.50;;
2001;SDS011;1003;48.002;7.788;2023-08-24T08:16:48;5.90;;;5.30;;
2001;SDS011;1003;48.002;7.788;2023-08-24T08:19:16;6.13;;;5.50;;
2001;SDS011;1003;48.002;7.788;2023-08-24T08:21:44;6.87;;;5.77;;
2001;SDS011;1003;48.002;7.788;2023-08-24T08:24:11;5.60;;;5.10;;
2001;SDS011;1003;48.002;7.788;2023-08-24T08:26:38;6.20;;;5.50;;
2001;SDS011;1003;48.002;7.788;2023-08-24T08:29:05;7.57;;;5.40;;
2001;SDS011;1003;48.002;7.788;2023-08-24T08:31:32;6.63;;;5.20;;
2001;SDS011;1003;48.002;7.788;2023-08-24T08:33:59;6.93;;;5.70;;
2001;SDS011;1003;48.002;7.788;2023-08-24T08:36:30;6.23;;;5.17;;
2001;SDS011;1003;48.002;7.788;2023-08-24T08:38:58;7.53;;;5.43;;
2001;SDS011;1003;48.002;7.788;2023-08-24T08:41:26;5.30;;;4.80;;
2001;SDS011;1003;48.002;7.788;2023-08-24T08:43:59;5.77;;;5.17;;
2001;SDS011;1003;48.002;7.788;2023-08-24T08:46:31;7.13;;;5.67;;
2001;SDS011;1003;48.002;7.788;2023-08-24T08:48:59;6.50;;;5.03;;
2001;SDS011;1003;48.002;7.788;2023-08-24T08:51:28;7.53;;;5.30;;
2001;SDS011;1003;48.002;7.788;2023-08-24T08:53:58;7.93;;;4.83;;
2001;SDS011;1003;48.002;7.788;2023-08-24T08:56:25;5.97;;;4.70;;
2001;SDS011;1003;48.002;7.788;2023-08-24T08:58:53;5.63;;;4.90;;
2001;SDS011;1003;48.002;7.788;2023-08-24T09:01:22;8.63;;;5.03;;
2001;SDS011;1003;48.002;7.788;2023-08-24T09:03:51;4.80;;;4.40;;
2001;SDS011;1003;48.002;7.788;2023-08-24T09:06:19;7.90;;;5.03;;
2001;SDS011;1003;48.002;7.788;2023-08-24T09:08:50;5.57;;;5.07;;
2001;SDS011;1003;48.002;7.788;2023-08-24T09:11:19;5.53;;;4.83;;
2001;SDS011;1003;48.002;7.788;2023-08-24T09:13:46;5.97;;;5.10;;
2001;SDS011;1003;48.002;7.788;2023-08-24T09:16:13;6.60;;;5.17;;
2001;SDS011;1003;48.002;7.788;2023-08-24T09:18:43;6.00;;;5.20;;
2001;SDS011;1003;48.002;7.788;2023-08-24T09:21:13;6.00;;;5.20;;
2001;SDS011;1003;48.002;7.788;2023-08-24T09:23:45;5.63;;;4.80;;
2001;SDS011;1003;48.002;7.788;2023-08-24T09:26:27;5.90;;;5.13;;
2001;SDS011;1003;48.002;7.788;2023-08-24T09:28:55;6.50;;;5.40;;
2001;SDS011;1003;48.002;7.788;2023-08-24T09:31:22;5.50;;;4.80;;
2001;SDS011;1003;48.002;7.788;2023-08-24T09:33:50;5.70;;;5.10;;
2001;SDS011;1003;48.002;7.788;2023-08-24T09:36:27;5.97;;;5.37;;
2001;SDS011;1003;48.002;7.788;2023-08-24T09:38:59;6.63;;;5.03;;
2001;SDS011;1003;48.002;7.788;2023-08-24T09:41:38;6.20;;;5.60;;
2001;SDS011;1003;48.002;7.788;2023-08-24T09:44:06;5.57;;;4.93;;
2001;SDS011;1003;48.002;7.788;2023-08-24T09:46:35;5.83;;;4.97;;
2001;SDS011;1003;48.002;7.788;2023-08-24T09:49:04;6.43;;;5.30;;
2001;SDS011;1003;48.002;7.788;2023-08-24T09:51:32;5.27;;;4.77;;
2001;SDS011;1003;48.002;7.788;2023-08-24T09:54:04;5.17;;;4.67;;
2001;SDS011;1003;48.002;7.788;2023-08-24T09:56:34;5.70;;;4.90;;
2001;SDS011;1003;48.002;7.788;2023-08-24T09:59:07;6.00;;;5.07;;
2001;SDS011;1003;48.002;7.788;2023-08-24T10:01:40;5.40;;;4.87;;
2001;SDS011;1003;48.002;7.788;2023-08-24T10:04:09;5.03;;;4.53;;
2001;SDS011;1003;48.002;7.788;2023-08-24T10:06:39;6.23;;;4.97;;
2001;SDS011;1003;48.002;7.788;2023-08-24T10:09:11;5.43;;;4.90;;
2001;SDS011;1003;48.002;7.788;2023-08-24T10:11:49;5.67;;;4.90;;
2001;SDS011;1003;48.002;7.788;2023-08-24T10:14:24;6.13;;;5.13;;
2001;SDS011;1003;48.002;7.788;2023-08-24T10:16:58;6.57;;;5.20;;
2001;SDS011;1003;48.002;7.788;2023-08-24T10:19:25;5.60;;;5.10;;
2001;SDS011;1003;48.002;7.788;2023-08-24T10:21:54;5.70;;;4.73;;
2001;SDS011;1003;48.002;7.788;2023-08-24T10:24:25;9.07;;;5.10;;
2001;SDS011;1003;48.002;7.788;2023-08-24T10:26:53;6.23;;;5.10;;
2001;SDS011;1003;48.002;7.788;2023-08-24T10:29:22;5.33;;;4.77;;
2001;SDS011;1003;48.002;7.788;2023-08-24T10:31:52;5.43;;;4.77;;
2001;SDS011;1003;48.002;7.788;2023-08-24T10:34:20;5.20;;;4.70;;
2001;SDS011;1003;48.002;7.788;2023-08-24T10:36:47;4.80;;;4.40;;
2001;SDS011;1003;48.002;7.788;2023-08-24T10:39:16;5.20;;;4.80;;
2001;SDS011;1003;48.002;7.788;2023-08-24T10:41:50;5.55;;;4.57;;
2001;SDS011;1003;48.002;7.788;2023-08-24T10:44:21;5.28;;;4.78;;
2001;SDS011;1003;48.002;7.788;2023-08-24T10:47:05;4.93;;;4.30;;
2001;SDS011;1003;48.002;7.788;2023-08-24T10:49:45;5.05;;;4.00;;
2001;SDS011;1003;48.002;7.788;2023-08-24T10:52:30;5.32;;;4.93;;
2001;SDS011;1003;48.002;7.788;2023-08-24T10:55:00;6.95;;;4.60;;
2001;SDS011;1003;48.002;7.788;2023-08-24T10:57:35;8.25;;;4.68;;
2001;SDS011;1003;48.002;7.788;2023-08-24T11:00:07;4.90;;;4.40;;
2001;SDS011;1003;48.002;7.788;2023-08-24T11:02:43;5.18;;;4.60;;
2001;SDS011;1003;48.002;7.788;2023-08-24T11:05:16;4.38;;;3.97;;
2001;SDS011;1003;48.002;7.788;2023-08-24T11:07:51;5.47;;;4.60;;
2001;SDS011;1003;48.002;7.788;2023-08-24T11:10:21;5.90;;;4.32;;
2001;SDS011;1003;48.002;7.788;2023-08-24T11:13:10;4.75;;;4.20;;
2001;SDS011;1003;48.002;7.788;2023-08-24T11:15:41;6.07;;;4.78;;
2001;SDS011;1003;48.002;7.788;2023-08-24T11:18:13;5.72;;;4.70;;
2001;SDS011;1003;48.002;7.788;2023-08-24T11:20:52;5.82;;;5.03;;
2001;SDS011;1003;48.002;7.788;2023-08-24T11:23:21;5.03;;;4.30;;
2001;SDS011;1003;48.002;7.788;2023-08-24T11:25:51;5.00;;;4.53;;
2001;SDS011;1003;48.002;7.788;2023-08-24T11:28:23;5.57;;;4.45;;
2001;SDS011;1003;48.002;7.788;2023-08-24T11:30:51;6.10;;;4.20;;
2001;SDS011;1003;48.002;7.788;2023-08-24T11:33:28;5.57;;;4.60;;
2001;SDS011;1003;48.002;7.788;2023-08-24T11:35:56;5.28;;;4.13;;
2001;SDS011;1003;48.002;7.788;2023-08-24T11:38:23;4.97;;;4.47;;
2001;SDS011;1003;48.002;7.788;2023-08-24T11:40:51;5.30;;;4.57;;
2001;SDS011;1003;48.002;7.788;2023-08-24T11:43:23;5.72;;;4.53;;
2001;SDS011;1003;48.002;7.788;2023-08-24T11:45:53;4.90;;;4.25;;
2001;SDS011;1003;48.002;7.788;2023-08-24T11:48:23;4.15;;;3.85;;
2001;SDS011;1003;48.002;7.788;2023-08-24T11:50:52;4.10;;;3.80;;
2001;SDS011;1003;48.002;7.788;2023-08-24T11:53:20;4.55;;;4.15;;
2001;SDS011;1003;48.002;7.788;2023-08-24T11:55:49;5.93;;;4.25;;
2001;SDS011;1003;48.002;7.788;2023-08-24T11:58:18;5.00;;;4.60;;
2001;SDS011;1003;48.002;7.788;2023-08-24T12:00:47;6.10;;;4.53;;
2001;SDS011;1003;48.002;7.788;2023-08-24T12:03:15;6.00;;;4.25;;
2001;SDS011;1003;48.002;7.788;2023-08-24T12:05:42;4.78;;;4.38;;
2001;SDS011;1003;48.002;7.788;2023-08-24T12:08:10;4.68;;;4.28;;
2001;SDS011;1003;48.002;7.788;2023-08-24T12:10:41;5.20;;;4.35;;
2001;SDS011;1003;48.002;7.788;2023-08-24T12:13:08;4.95;;;4.45;;
2001;SDS011;1003;48.002;7.788;2023-08-24T12:15:35;5.80;;;4.40;;
2001;SDS011;1003;48.002;7.788;2023-08-24T12:18:08;5.00;;;4.60;;
2001;SDS011;1003;48.002;7.788;2023-08-24T12:20:36;5.22;;;4.40;;
2001;SDS011;1003;48.002;7.788;2023-08-24T12:23:04;5.68;;;4.40;;
2001;SDS011;1003;48.002;7.788;2023-08-24T12:25:35;5.35;;;4.60;;
2001;SDS011;1003;48.002;7.788;2023-08-24T12:28:10;6.78;;;4.28;;
2001;SDS011;1003;48.002;7.788;2023-08-24T12:30:47;4.72;;;4.28;;
2001;SDS011;1003;48.002;7.788;2023-08-24T12:33:25;4.55;;;4.15;;
2001;SDS011;1003;48.002;7.788;2023-08-24T12:35:53;5.28;;;4.18;;
2001;SDS011;1003;48.002;7.788;2023-08-24T12:38:21;5.43;;;4.18;;
2001;SDS011;1003;48.002;7.788;2023-08-24T12:40:50;7.10;;;4.38;;
2001;SDS011;1003;48.002;7.788;2023-08-24T12:43:17;4.93;;;4.00;;
2001;SDS011;1003;48.002;7.788;2023-08-24T12:45:44;6.13;;;4.38;;
2001;SDS011;1003;48.002;7.788;2023-08-24T12:48:12;8.23;;;4.35;;
2001;SDS011;1003;48.002;7.788;2023-08-24T12:50:40;5.70;;;4.25;;
2001;SDS011;1003;48.002;7.788;2023-08-24T12:53:07;5.43;;;3.88;;
2001;SDS011;1003;48.002;7.788;2023-08-24T12:55:35;6.53;;;4.50;;
2001;SDS011;1003;48.002;7.788;2023-08-24T12:58:04;5.70;;;4.13;;
2001;SDS011;1003;48.002;7.788;2023-08-24T13:00:32;6.30;;;4.43;;
2001;SDS011;1003;48.002;7.788;2023-08-24T13:02:59;5.65;;;4.10;;
2001;SDS011;1003;48.002;7.788;2023-08-24T13:05:26;5.72;;;4.30;;
2001;SDS011;1003;48.002;7.788;2023-08-24T13:07:55;5.15;;;3.70;;
2001;SDS011;1003;48.002;7.788;2023-08-24T13:10:22;6.28;;;4.00;;
2001;SDS011;1003;48.002;7.788;2023-08-24T13:12:50;5.15;;;3.90;;
2001;SDS011;1003;48.002;7.788;2023-08-24T13:15:17;4.13;;;3.72;;
2001;SDS011;1003;48.002;7.788;2023-08-24T13:17:45;5.53;;;3.67;;
2001;SDS011;1003;48.002;7.788;2023-08-24T13:20:12;5.10;;;3.45;;
2001;SDS011;1003;48.002;7.788;2023-08-24T13:22:40;8.30;;;4.10;;
2001;SDS011;1003;48.002;7.788;2023-08-24T13:25:10;7.70;;;4.15;;
2001;SDS011;1003;48.002;7.788;2023-08-24T13:27:37;5.55;;;3.45;;
2001;SDS011;1003;48.002;7.788;2023-08-24T13:30:04;5.60;;;3.60;;
2001;SDS011;1003;48.002;7.788;2023-08-24T13:32:33;5.07;;;3.90;;
2001;SDS011;1003;48.002;7.788;2023-08-24T13:35:00;5.03;;;3.60;;
2001;SDS011;1003;48.002;7.788;2023-08-24T13:37:27;4.93;;;3.42;;
2001;SDS011;1003;48.002;7.788;2023-08-24T13:39:54;7.35;;;3.28;;
2001;SDS011;1003;48.002;7.788;2023-08-24T13:42:23;5.50;;;2.70;;
2001;SDS011;1003;48.002;7.788;2023-08-24T13:44:50;4.43;;;2.67;;
2001;SDS011;1003;48.002;7.788;2023-08-24T13:47:17;5.10;;;2.80;;
2001;SDS011;1003;48.002;7.788;2023-08-24T13:49:46;5.47;;;3.40;;
2001;SDS011;1003;48.002;7.788;2023-08-24T13:52:13;4.60;;;3.25;;
2001;SDS011;1003;48.002;7.788;2023-08-24T13:54:41;7.70;;;3.72;;
2001;SDS011;1003;48.002;7.788;2023-08-24T13:57:09;5.78;;;3.50;;
2001;SDS011;1003;48.002;7.788;2023-08-24T13:59:37;6.40;;;3.45;;
2001;SDS011;1003;48.002;7.788;2023-08-24T14:02:04;8.02;;;3.50;;
2001;SDS011;1003;48.002;7.788;2023-08-24T14:04:33;9.48;;;3.50;;
2001;SDS011;1003;48.002;7.788;2023-08-24T14:07:00;5.43;;;3.20;;
2001;SDS011;1003;48.002;7.788;2023-08-24T14:09:27;5.45;;;3.05;;
2001;SDS011;1003;48.002;7.788;2023-08-24T14:11:54;5.57;;;3.20;;
2001;SDS011;1003;48.002;7.788;2023-08-24T14:14:22;4.93;;;3.20;;
2001;SDS011;1003;48.002;7.788;2023-08-24T14:16:54;7.85;;;3.25;;
2001;SDS011;1003;48.002;7.788;2023-08-24T14:19:22;6.15;;;3.15;;
2001;SDS011;1003;48.002;7.788;2023-08-24T14:21:49;6.00;;;3.13;;
2001;SDS011;1003;48.002;7.788;2023-08-24T14:24:17;7.25;;;3.33;;
2001;SDS011;1003;48.002;7.788;2023-08-24T14:26:44;6.65;;;3.38;;
2001;SDS011;1003;48.002;7.788;2023-08-24T14:29:11;6.75;;;3.20;;
2001;SDS011;1003;48.002;7.788;2023-08-24T14:31:40;6.72;;;3.65;;
2001;SDS011;1003;48.002;7.788;2023-08-24T14:34:08;5.63;;;3.40;;
2001;SDS011;1003;48.002;7.788;2023-08-24T14:36:38;7.47;;;3.53;;
2001;SDS011;1003;48.002;7.788;2023-08-24T14:39:05;5.22;;;3.35;;
2001;SDS011;1003;48.002;7.788;2023-08-24T14:41:33;6.45;;;3.33;;
2001;SDS011;1003;48.002;7.788;2023-08-24T14:44:00;4.80;;;3.38;;
2001;SDS011;1003;48.002;7.788;2023-08-24T14:46:27;4.55;;;3.50;;
2001;SDS011;1003;48.002;7.788;2023-08-24T14:48:54;5.03;;;3.40;;
2001;SDS011;1003;48.002;7.788;2023-08-24T14:51:23;6.53;;;3.85;;
2001;SDS011;1003;48.002;7.788;2023-08-24T14:53:50;4.88;;;3.85;;
2001;SDS011;1003;48.002;7.788;2023-08-24T14:56:17;5.63;;;3.78;;
2001;SDS011;1003;48.002;7.788;2023-08-24T14:58:44;6.93;;;3.53;;
2001;SDS011;1003;48.002;7.788;2023-08-24T15:01:12;7.18;;;4.05;;
2001;SDS011;1003;48.002;7.788;2023-08-24T15:03:39;5.30;;;3.83;;
2001;SDS011;1003;48.002;7.788;2023-08-24T15:06:06;7.63;;;3.88;;
2001;SDS011;1003;48.002;7.788;2023-08-24T15:08:35;6.43;;;3.67;;
2001;SDS011;1003;48.002;7.788;2023-08-24T15:11:02;9.27;;;3.58;;
2001;SDS011;1003;48.002;7.788;2023-08-24T15:13:30;4.68;;;3.88;;
2001;SDS011;1003;48.002;7.788;2023-08-24T15:15:57;5.05;;;4.47;;
2001;SDS011;1003;48.002;7.788;2023-08-24T15:18:25;7.05;;;5.03;;
2001;SDS011;1003;48.002;7.788;2023-08-24T15:20:53;6.78;;;5.13;;
2001;SDS011;1003;48.002;7.788;2023-08-24T15:23:20;6.35;;;5.60;;